Main page
METAR-TAF:

METAR-TAF

Airports :

Shaikh Zayed International Airport

Rahim Yar Khan, Pakistan

latitude: 28-23-02N, longitude: 70-16-47E, elevation: 83 m

METAR: missing

Time: 18:35 (13:35 UTC)

Forecast

The report was made 3 hours and 50 minutes ago, at 09:45 UTC
Forecast valid from 03 at 12 UTC to 04 at 06 UTC
Wind 5 kt from the Southwest
Visibility: 3000 m
smoke
From 03 at 1800 UTC
Wind kt from the North
Visibility: 1500 m
mist
Probability 30% :
Temporary
from 04 at 01 UTC to 04 at 05 UTC
Wind kt from the North
Visibility: 2000 m
mist

TAF: OPRK 030945Z 0312/0406 23005KT 3000 FU NSC TN09/0401Z FM031800 00000KT 1500 BR NSC PROB30 TEMPO 0401/0405 00000KT 2000 BR NSC

Weather observations and forecasts of more than 4000 airports (METAR and TAF reports).

The available stations are represented by yellow and red dots on the map.

Hover mouse over dot to see the name of the station.

Then click to see weather observations and forecasts.

To change the map : click on the green buttons with a black cross to zoom in, on the green button with a dash to zoom out, or on the green arrows for adjacent maps.


METAR-TAF: